createdAt,value
2018-03-20T00:00:15.938Z,98074
2018-03-20T00:02:44.090Z,98083
2018-03-20T00:05:12.251Z,98078
2018-03-20T00:07:50.080Z,98078
2018-03-20T00:10:18.242Z,98078
2018-03-20T00:12:46.377Z,98081
2018-03-20T00:15:15.302Z,98071
2018-03-20T00:17:43.447Z,98065
2018-03-20T00:20:12.377Z,98077
2018-03-20T00:22:40.519Z,98067
2018-03-20T00:25:08.660Z,98074
2018-03-20T00:27:36.821Z,98076
2018-03-20T00:30:04.965Z,98075
2018-03-20T00:32:33.137Z,98076
2018-03-20T00:35:01.283Z,98069
2018-03-20T00:37:43.803Z,98073
2018-03-20T00:40:11.987Z,98078
2018-03-20T00:42:40.178Z,98072
2018-03-20T00:45:08.464Z,98075
2018-03-20T00:47:41.257Z,98068
2018-03-20T00:50:09.434Z,98066
2018-03-20T00:52:37.637Z,98067
2018-03-20T00:55:05.810Z,98071
2018-03-20T00:57:42.226Z,98078
2018-03-20T01:00:10.377Z,98084
2018-03-20T01:02:38.574Z,98072
2018-03-20T01:05:06.738Z,98079
2018-03-20T01:07:47.955Z,98087
2018-03-20T01:10:16.115Z,98083
2018-03-20T01:12:44.262Z,98086
2018-03-20T01:15:12.427Z,98085
2018-03-20T01:17:48.118Z,98089
2018-03-20T01:20:16.290Z,98096
2018-03-20T01:22:44.439Z,98098
2018-03-20T01:25:12.616Z,98102
2018-03-20T01:27:43.690Z,98094
2018-03-20T01:30:11.915Z,98099
2018-03-20T01:32:40.071Z,98094
2018-03-20T01:35:08.237Z,98100
2018-03-20T01:37:37.229Z,98094
2018-03-20T01:40:05.446Z,98099
2018-03-20T01:42:34.526Z,98105
2018-03-20T01:45:02.736Z,98098
2018-03-20T01:47:36.224Z,98098
2018-03-20T01:50:04.481Z,98100
2018-03-20T01:52:32.699Z,98099
2018-03-20T01:55:00.868Z,98101
2018-03-20T01:57:29.102Z,98101
2018-03-20T01:59:57.272Z,98100
2018-03-20T02:02:25.506Z,98094
2018-03-20T02:04:53.677Z,98094
2018-03-20T02:07:24.587Z,98092
2018-03-20T02:09:52.774Z,98090
2018-03-20T02:12:21.062Z,98093
2018-03-20T02:14:50.015Z,98091
2018-03-20T02:17:21.359Z,98094
2018-03-20T02:19:49.523Z,98093
2018-03-20T02:22:17.786Z,98097
2018-03-20T02:24:45.947Z,98088
2018-03-20T02:27:19.147Z,98095
2018-03-20T02:29:47.363Z,98088
2018-03-20T02:32:15.588Z,98093
2018-03-20T02:34:43.764Z,98095
2018-03-20T02:37:11.952Z,98105
2018-03-20T02:39:40.098Z,98091
2018-03-20T02:42:08.288Z,98099
2018-03-20T02:44:37.402Z,98096
2018-03-20T02:47:15.941Z,98098
2018-03-20T02:49:44.089Z,98099
2018-03-20T02:52:12.237Z,98100
2018-03-20T02:54:40.398Z,98097
2018-03-20T02:57:13.434Z,98102
2018-03-20T02:59:41.597Z,98096
2018-03-20T03:02:09.749Z,98103
2018-03-20T03:04:37.917Z,98101
2018-03-20T03:07:10.530Z,98109
2018-03-20T03:09:38.694Z,98095
2018-03-20T03:12:06.842Z,98105
2018-03-20T03:14:35.053Z,98094
2018-03-20T03:17:12.123Z,98102
2018-03-20T03:19:40.296Z,98101
2018-03-20T03:22:09.395Z,98096
2018-03-20T03:24:37.558Z,98114
2018-03-20T03:27:05.710Z,98115
2018-03-20T03:29:33.866Z,98107
2018-03-20T03:32:02.775Z,98098
2018-03-20T03:34:30.928Z,98111
2018-03-20T03:37:00.814Z,98107
2018-03-20T03:39:28.976Z,98116
2018-03-20T03:41:57.142Z,98104
2018-03-20T03:44:25.310Z,98116
2018-03-20T03:46:53.461Z,98112
2018-03-20T03:49:21.691Z,98120
2018-03-20T03:51:49.842Z,98120
2018-03-20T03:54:17.977Z,98121
2018-03-20T03:56:47.144Z,98122
2018-03-20T03:59:15.281Z,98123
2018-03-20T04:01:43.474Z,98128
2018-03-20T04:04:11.619Z,98128
2018-03-20T04:06:42.817Z,98128
2018-03-20T04:09:11.766Z,98135
2018-03-20T04:11:39.929Z,98139
2018-03-20T04:14:08.069Z,98146
2018-03-20T04:16:36.994Z,98138
2018-03-20T04:19:05.128Z,98146
2018-03-20T04:21:34.054Z,98138
2018-03-20T04:24:02.203Z,98149
2018-03-20T04:26:30.450Z,98149
2018-03-20T04:28:58.635Z,98140
2018-03-20T04:31:27.635Z,98146
2018-03-20T04:33:56.635Z,98153
2018-03-20T04:36:25.787Z,98150
2018-03-20T04:38:54.007Z,98145
2018-03-20T04:41:22.251Z,98149
2018-03-20T04:43:50.483Z,98147
2018-03-20T04:46:22.037Z,98152
2018-03-20T04:48:50.254Z,98143
2018-03-20T04:51:18.430Z,98153
2018-03-20T04:53:46.678Z,98154
2018-03-20T04:56:14.880Z,98151
2018-03-20T04:58:43.082Z,98152
2018-03-20T05:01:11.283Z,98159
2018-03-20T05:03:39.490Z,98165
2018-03-20T05:06:07.639Z,98156
2018-03-20T05:08:35.800Z,98170
2018-03-20T05:11:03.966Z,98166
2018-03-20T05:13:32.129Z,98170
2018-03-20T05:16:10.770Z,98172
2018-03-20T05:21:49.665Z,98180
2018-03-20T05:24:18.594Z,98175
2018-03-20T05:27:01.082Z,98178
2018-03-20T05:29:30.014Z,98180
2018-03-20T05:31:58.153Z,98182
2018-03-20T05:34:26.367Z,98188
2018-03-20T05:37:08.849Z,98179
2018-03-20T05:39:37.046Z,98180
2018-03-20T05:42:05.197Z,98179
2018-03-20T05:44:33.394Z,98179
2018-03-20T05:50:12.188Z,98194
2018-03-20T05:52:41.114Z,98186
2018-03-20T05:55:09.286Z,98186
2018-03-20T05:57:45.144Z,98184
2018-03-20T06:00:13.303Z,98196
2018-03-20T06:02:41.471Z,98198
2018-03-20T06:05:09.639Z,98199
2018-03-20T06:07:37.778Z,98202
2018-03-20T06:10:05.922Z,98209
2018-03-20T06:12:34.089Z,98213
2018-03-20T06:15:02.241Z,98206
2018-03-20T06:17:30.406Z,98207
2018-03-20T06:19:58.545Z,98208
2018-03-20T06:22:26.706Z,98203
2018-03-20T06:24:54.851Z,98210
2018-03-20T06:27:23.023Z,98215
2018-03-20T06:29:51.212Z,98208
2018-03-20T06:32:19.365Z,98207
2018-03-20T06:34:47.518Z,98206
2018-03-20T06:37:18.865Z,98204
2018-03-20T06:39:47.016Z,98201
2018-03-20T06:42:16.011Z,98211
2018-03-20T06:44:44.971Z,98199
2018-03-20T06:47:13.130Z,98202
2018-03-20T06:49:41.398Z,98190
2018-03-20T06:52:09.598Z,98198
2018-03-20T06:54:37.835Z,98202
2018-03-20T06:57:06.963Z,98192
2018-03-20T06:59:35.215Z,98190
2018-03-20T07:02:04.124Z,98193
2018-03-20T07:04:32.386Z,98192
2018-03-20T07:07:01.567Z,98195
2018-03-20T07:09:29.776Z,98191
2018-03-20T07:11:57.982Z,98199
2018-03-20T07:14:26.922Z,98197
2018-03-20T07:16:55.110Z,98187
2018-03-20T07:19:23.310Z,98195
2018-03-20T07:21:51.475Z,98193
2018-03-20T07:24:19.622Z,98183
2018-03-20T07:26:51.795Z,98179
2018-03-20T07:29:19.942Z,98181
2018-03-20T07:31:48.107Z,98192
2018-03-20T07:34:16.246Z,98197
2018-03-20T07:36:44.441Z,98189
2018-03-20T07:39:12.659Z,98190
2018-03-20T07:41:40.848Z,98193
2018-03-20T07:44:09.014Z,98193
2018-03-20T07:46:47.688Z,98207
2018-03-20T07:49:15.858Z,98203
2018-03-20T07:51:44.074Z,98201
2018-03-20T07:54:12.244Z,98198
2018-03-20T07:56:50.656Z,98207
2018-03-20T07:59:18.802Z,98208
2018-03-20T08:01:46.979Z,98207
2018-03-20T08:04:15.165Z,98205
2018-03-20T08:06:46.779Z,98211
2018-03-20T08:09:15.746Z,98207
2018-03-20T08:11:43.935Z,98214
2018-03-20T08:14:12.135Z,98205
2018-03-20T08:16:40.348Z,98203
2018-03-20T08:19:08.583Z,98204
2018-03-20T08:21:36.773Z,98194
2018-03-20T08:24:04.964Z,98204
2018-03-20T08:26:36.614Z,98192
2018-03-20T08:29:04.795Z,98191
2018-03-20T08:31:32.933Z,98196
2018-03-20T08:34:01.094Z,98197
2018-03-20T08:36:30.964Z,98191
2018-03-20T08:38:59.142Z,98184
2018-03-20T08:41:27.300Z,98197
2018-03-20T08:43:55.447Z,98195
2018-03-20T08:46:31.050Z,98200
2018-03-20T08:48:59.191Z,98196
2018-03-20T08:51:27.380Z,98200
2018-03-20T08:53:55.518Z,98195
2018-03-20T08:56:33.962Z,98190
2018-03-20T08:59:02.134Z,98206
2018-03-20T09:01:30.293Z,98203
2018-03-20T09:03:58.456Z,98204
2018-03-20T09:06:44.587Z,98209
2018-03-20T09:09:12.839Z,98202
2018-03-20T09:11:48.758Z,98198
2018-03-20T09:14:17.693Z,98197
2018-03-20T09:16:45.878Z,98205
2018-03-20T09:19:15.182Z,98200
2018-03-20T09:21:43.382Z,98200
2018-03-20T09:24:12.327Z,98210
2018-03-20T09:26:42.540Z,98198
2018-03-20T09:29:10.748Z,98207
2018-03-20T09:31:39.009Z,98200
2018-03-20T09:34:08.043Z,98201
2018-03-20T09:36:36.291Z,98207
2018-03-20T09:39:04.514Z,98215
2018-03-20T09:41:32.737Z,98216
2018-03-20T09:44:00.982Z,98209
2018-03-20T09:46:32.557Z,98227
2018-03-20T09:49:00.787Z,98229
2018-03-20T09:51:28.926Z,98229
2018-03-20T09:53:57.081Z,98241
2018-03-20T09:56:27.179Z,98240
2018-03-20T09:58:55.330Z,98241
2018-03-20T10:01:23.521Z,98235
2018-03-20T10:03:51.714Z,98251
2018-03-20T10:06:20.796Z,98244
2018-03-20T10:08:48.950Z,98257
2018-03-20T10:11:17.166Z,98263
2018-03-20T10:13:45.319Z,98257
2018-03-20T10:16:21.571Z,98263
2018-03-20T10:18:49.759Z,98268
2018-03-20T10:21:17.906Z,98280
2018-03-20T10:23:46.076Z,98282
2018-03-20T10:26:14.222Z,98278
2018-03-20T10:28:42.359Z,98281
2018-03-20T10:31:10.505Z,98282
2018-03-20T10:33:38.634Z,98288
2018-03-20T10:36:07.178Z,98287
2018-03-20T10:38:35.314Z,98289
2018-03-20T10:41:04.292Z,98285
2018-03-20T10:43:33.287Z,98291
2018-03-20T10:46:03.258Z,98296
2018-03-20T10:48:31.463Z,98292
2018-03-20T10:50:59.741Z,98289
2018-03-20T10:53:27.894Z,98305
2018-03-20T10:56:04.329Z,98304
2018-03-20T10:58:32.531Z,98308
2018-03-20T11:01:06.504Z,98302
2018-03-20T11:03:34.699Z,98298
2018-03-20T11:06:06.663Z,98315
2018-03-20T11:08:35.487Z,98309
2018-03-20T11:11:03.683Z,98315
2018-03-20T11:13:32.579Z,98317
2018-03-20T11:16:01.478Z,98315
2018-03-20T11:18:29.629Z,98320
2018-03-20T11:20:58.534Z,98324
2018-03-20T11:23:26.698Z,98322
2018-03-20T11:25:55.603Z,98334
2018-03-20T11:28:23.804Z,98340
2018-03-20T11:30:51.989Z,98342
2018-03-20T11:33:20.155Z,98342
2018-03-20T11:35:51.929Z,98344
2018-03-20T11:38:20.212Z,98339
2018-03-20T11:40:48.370Z,98356
2018-03-20T11:43:16.560Z,98351
2018-03-20T11:45:44.769Z,98355
2018-03-20T11:48:13.710Z,98362
2018-03-20T11:50:41.890Z,98357
2018-03-20T11:53:10.097Z,98350
2018-03-20T11:55:38.342Z,98349
2018-03-20T11:58:06.579Z,98361
2018-03-20T12:00:34.878Z,98359
2018-03-20T12:03:03.059Z,98368
2018-03-20T12:05:31.256Z,98356
2018-03-20T12:07:59.425Z,98371
2018-03-20T12:10:42.172Z,98373
2018-03-20T12:13:10.322Z,98375
2018-03-20T12:15:38.465Z,98362
2018-03-20T12:18:06.606Z,98365
2018-03-20T12:20:34.871Z,98361
2018-03-20T12:23:03.087Z,98370
2018-03-20T12:25:31.237Z,98357
2018-03-20T12:27:59.370Z,98372
2018-03-20T12:30:28.299Z,98372
2018-03-20T12:32:56.508Z,98371
2018-03-20T12:35:24.664Z,98374
2018-03-20T12:37:54.771Z,98374
2018-03-20T12:40:22.936Z,98377
2018-03-20T12:42:51.082Z,98376
2018-03-20T12:45:20.004Z,98387
2018-03-20T12:47:53.344Z,98383
2018-03-20T12:50:21.603Z,98386
2018-03-20T12:52:49.777Z,98376
2018-03-20T12:55:17.966Z,98385
2018-03-20T12:57:50.564Z,98393
2018-03-20T13:00:19.621Z,98384
2018-03-20T13:02:47.818Z,98393
2018-03-20T13:05:15.972Z,98393
2018-03-20T13:07:46.165Z,98405
2018-03-20T13:10:14.372Z,98403
2018-03-20T13:12:42.581Z,98404
2018-03-20T13:15:10.828Z,98403
2018-03-20T13:17:40.021Z,98406
2018-03-20T13:20:08.229Z,98416
2018-03-20T13:22:36.628Z,98408
2018-03-20T13:27:33.634Z,98416
2018-03-20T13:30:01.827Z,98417
2018-03-20T13:32:31.031Z,98423
2018-03-20T13:35:00.014Z,98421
2018-03-20T13:37:29.172Z,98425
2018-03-20T13:39:57.425Z,98425
2018-03-20T13:42:25.636Z,98436
2018-03-20T13:44:53.889Z,98437
2018-03-20T13:47:22.181Z,98436
2018-03-20T13:49:50.376Z,98427
2018-03-20T13:52:18.599Z,98432
2018-03-20T13:54:46.832Z,98436
2018-03-20T13:57:15.991Z,98438
2018-03-20T13:59:45.179Z,98433
2018-03-20T14:02:13.797Z,98425
2018-03-20T14:04:42.046Z,98426
2018-03-20T14:07:21.948Z,98426
2018-03-20T14:09:50.898Z,98439
2018-03-20T14:12:19.074Z,98439
2018-03-20T14:14:47.341Z,98441
2018-03-20T14:17:16.476Z,98454
2018-03-20T14:19:45.491Z,98450
2018-03-20T14:22:14.406Z,98450
2018-03-20T14:24:42.558Z,98457
2018-03-20T14:27:10.699Z,98470
2018-03-20T14:29:38.854Z,98470
2018-03-20T14:32:06.982Z,98477
2018-03-20T14:34:35.136Z,98480
2018-03-20T14:37:20.820Z,98486
2018-03-20T14:39:49.748Z,98483
2018-03-20T14:42:17.905Z,98485
2018-03-20T14:44:46.082Z,98491
2018-03-20T14:47:14.230Z,98489
2018-03-20T14:49:43.143Z,98503
2018-03-20T14:52:11.314Z,98500
2018-03-20T14:54:39.494Z,98505
2018-03-20T14:57:07.651Z,98507
2018-03-20T14:59:36.555Z,98502
2018-03-20T15:02:04.714Z,98515
2018-03-20T15:04:33.613Z,98522
2018-03-20T15:07:05.706Z,98521
2018-03-20T15:09:33.830Z,98520
2018-03-20T15:12:01.986Z,98535
2018-03-20T15:14:30.124Z,98537
2018-03-20T15:17:12.304Z,98536
2018-03-20T15:19:40.455Z,98540
2018-03-20T15:22:09.379Z,98541
2018-03-20T15:24:37.513Z,98545
2018-03-20T15:27:21.338Z,98555
2018-03-20T15:29:49.477Z,98553
2018-03-20T15:32:18.395Z,98553
2018-03-20T15:34:46.561Z,98556
2018-03-20T15:37:14.727Z,98568
2018-03-20T15:39:42.867Z,98568
2018-03-20T15:42:18.505Z,98576
2018-03-20T15:44:46.650Z,98569
2018-03-20T15:47:14.854Z,98580
2018-03-20T15:49:42.994Z,98573
2018-03-20T15:52:11.174Z,98593
2018-03-20T15:54:39.346Z,98582
2018-03-20T15:57:07.482Z,98595
2018-03-20T15:59:35.642Z,98593
2018-03-20T16:02:03.797Z,98598
2018-03-20T16:04:31.949Z,98594
2018-03-20T16:07:00.854Z,98606
2018-03-20T16:09:29.778Z,98602
2018-03-20T16:11:57.910Z,98604
2018-03-20T16:14:26.831Z,98612
2018-03-20T16:16:55.966Z,98623
2018-03-20T16:19:24.146Z,98625
2018-03-20T16:21:52.282Z,98622
2018-03-20T16:24:20.449Z,98626
2018-03-20T16:26:49.365Z,98620
2018-03-20T16:29:17.531Z,98635
2018-03-20T16:31:45.662Z,98642
2018-03-20T16:34:14.582Z,98642
2018-03-20T16:36:43.689Z,98642
2018-03-20T16:39:11.855Z,98643
2018-03-20T16:41:40.002Z,98656
2018-03-20T16:44:08.161Z,98662
2018-03-20T16:46:36.338Z,98663
2018-03-20T16:49:04.457Z,98666
2018-03-20T16:51:32.616Z,98670
2018-03-20T16:54:00.751Z,98686
2018-03-20T16:56:29.667Z,98692
2018-03-20T16:58:57.795Z,98697
2018-03-20T17:01:25.962Z,98704
2018-03-20T17:03:54.196Z,98702
2018-03-20T17:06:22.448Z,98708
2018-03-20T17:08:50.608Z,98717
2018-03-20T17:11:19.561Z,98723
2018-03-20T17:13:47.719Z,98728
2018-03-20T17:16:19.639Z,98732
2018-03-20T17:18:47.813Z,98738
2018-03-20T17:21:16.841Z,98735
2018-03-20T17:23:45.067Z,98738
2018-03-20T17:26:13.286Z,98740
2018-03-20T17:28:41.526Z,98752
2018-03-20T17:31:10.482Z,98761
2018-03-20T17:33:38.699Z,98755
2018-03-20T17:36:06.842Z,98773
2018-03-20T17:38:34.988Z,98770
2018-03-20T17:41:03.164Z,98778
2018-03-20T17:43:31.298Z,98784
2018-03-20T17:46:00.443Z,98778
2018-03-20T17:48:28.577Z,98784
2018-03-20T17:50:56.754Z,98798
2018-03-20T17:53:24.887Z,98811
2018-03-20T17:56:20.506Z,98814
2018-03-20T17:58:48.641Z,98816
2018-03-20T18:01:16.786Z,98822
2018-03-20T18:03:44.913Z,98819
2018-03-20T18:06:15.002Z,98828
2018-03-20T18:08:43.138Z,98834
2018-03-20T18:11:11.297Z,98840
2018-03-20T18:13:41.062Z,98839
2018-03-20T18:16:09.234Z,98846
2018-03-20T18:18:37.375Z,98850
2018-03-20T18:21:05.516Z,98855
2018-03-20T18:23:33.677Z,98856
2018-03-20T18:26:01.942Z,98858
2018-03-20T18:28:30.099Z,98869
2018-03-20T18:30:58.242Z,98879
2018-03-20T18:33:26.407Z,98883
2018-03-20T18:35:59.727Z,98885
2018-03-20T18:38:27.895Z,98881
2018-03-20T18:40:56.875Z,98892
2018-03-20T18:43:25.077Z,98884
2018-03-20T18:45:56.469Z,98892
2018-03-20T18:48:24.707Z,98908
2018-03-20T18:50:52.884Z,98902
2018-03-20T18:53:21.118Z,98912
2018-03-20T18:55:57.002Z,98915
2018-03-20T18:58:25.215Z,98923
2018-03-20T19:00:53.397Z,98924
2018-03-20T19:03:22.443Z,98920
2018-03-20T19:05:58.493Z,98939
2018-03-20T19:08:26.731Z,98945
2018-03-20T19:10:55.683Z,98942
2018-03-20T19:13:23.875Z,98950
2018-03-20T19:15:52.083Z,98957
2018-03-20T19:18:21.306Z,98964
2018-03-20T19:20:49.506Z,98968
2018-03-20T19:23:17.688Z,98968
2018-03-20T19:25:49.452Z,98974
2018-03-20T19:28:17.687Z,98971
2018-03-20T19:30:45.838Z,98975
2018-03-20T19:33:14.035Z,98993
2018-03-20T19:35:45.930Z,98990
2018-03-20T19:38:14.171Z,98995
2018-03-20T19:40:42.362Z,99001
2018-03-20T19:43:10.564Z,98999
2018-03-20T19:45:38.760Z,99009
2018-03-20T19:48:07.719Z,99013
2018-03-20T19:50:35.982Z,99016
2018-03-20T19:53:04.156Z,99020
2018-03-20T19:55:32.333Z,99028
2018-03-20T19:58:00.545Z,99023
2018-03-20T20:00:29.523Z,99024
2018-03-20T20:02:57.727Z,99024
2018-03-20T20:05:25.940Z,99034
2018-03-20T20:08:01.507Z,99038
2018-03-20T20:10:29.771Z,99047
2018-03-20T20:12:58.008Z,99036
2018-03-20T20:15:26.221Z,99041
2018-03-20T20:17:54.447Z,99052
2018-03-20T20:20:22.781Z,99052
2018-03-20T20:22:51.660Z,99053
2018-03-20T20:25:19.891Z,99047
2018-03-20T20:27:49.052Z,99064
2018-03-20T20:30:17.319Z,99065
2018-03-20T20:32:45.543Z,99067
2018-03-20T20:35:13.792Z,99062
2018-03-20T20:37:43.715Z,99059
2018-03-20T20:40:12.712Z,99067
2018-03-20T20:42:41.689Z,99073
2018-03-20T20:45:10.673Z,99070
2018-03-20T20:47:38.875Z,99073
2018-03-20T20:50:07.131Z,99083
2018-03-20T20:52:36.153Z,99082
2018-03-20T20:55:04.371Z,99089
2018-03-20T20:57:33.600Z,99092
2018-03-20T21:00:01.823Z,99085
2018-03-20T21:02:30.071Z,99093
2018-03-20T21:04:58.325Z,99086
2018-03-20T21:07:38.600Z,99093
2018-03-20T21:10:06.769Z,99095
2018-03-20T21:12:34.978Z,99105
2018-03-20T21:15:03.168Z,99101
2018-03-20T21:17:34.419Z,99102
2018-03-20T21:20:02.631Z,99103
2018-03-20T21:22:31.647Z,99112
2018-03-20T21:24:59.892Z,99115
2018-03-20T21:27:28.949Z,99119
2018-03-20T21:29:57.163Z,99115
2018-03-20T21:32:26.177Z,99124
2018-03-20T21:34:54.412Z,99131
2018-03-20T21:37:37.565Z,99130
2018-03-20T21:40:06.578Z,99127
2018-03-20T21:42:34.866Z,99125
2018-03-20T21:45:03.059Z,99126
2018-03-20T21:47:48.254Z,99128
2018-03-20T21:50:17.135Z,99123
2018-03-20T21:52:45.320Z,99125
2018-03-20T21:55:13.479Z,99127
2018-03-20T21:57:41.685Z,99131
2018-03-20T22:00:10.688Z,99132
2018-03-20T22:02:38.882Z,99130
2018-03-20T22:05:07.022Z,99132
2018-03-20T22:07:35.195Z,99151
2018-03-20T22:10:04.228Z,99146
2018-03-20T22:12:32.499Z,99145
2018-03-20T22:15:00.645Z,99151
2018-03-20T22:17:34.729Z,99153
2018-03-20T22:20:02.880Z,99157
2018-03-20T22:22:31.074Z,99160
2018-03-20T22:24:59.243Z,99163
2018-03-20T22:27:28.382Z,99172
2018-03-20T22:29:56.539Z,99167
2018-03-20T22:32:25.531Z,99178
2018-03-20T22:34:53.746Z,99187
2018-03-20T22:37:24.923Z,99183
2018-03-20T22:39:53.080Z,99182
2018-03-20T22:42:21.274Z,99178
2018-03-20T22:44:49.409Z,99182
2018-03-20T22:47:26.942Z,99188
2018-03-20T22:49:55.104Z,99194
2018-03-20T22:52:23.254Z,99193
2018-03-20T22:54:51.418Z,99196
2018-03-20T22:57:23.696Z,99203
2018-03-20T22:59:51.872Z,99201
2018-03-20T23:02:20.024Z,99201
2018-03-20T23:04:48.206Z,99197
2018-03-20T23:07:23.969Z,99196
2018-03-20T23:09:52.122Z,99200
2018-03-20T23:12:20.260Z,99199
2018-03-20T23:14:48.414Z,99200
2018-03-20T23:17:21.994Z,99212
2018-03-20T23:19:50.158Z,99200
2018-03-20T23:22:18.303Z,99210
2018-03-20T23:24:46.478Z,99211
2018-03-20T23:27:21.850Z,99212
2018-03-20T23:29:50.014Z,99217
2018-03-20T23:32:18.160Z,99211
2018-03-20T23:34:47.086Z,99222
2018-03-20T23:37:18.942Z,99229
2018-03-20T23:39:47.097Z,99235
2018-03-20T23:42:15.247Z,99230
2018-03-20T23:44:44.247Z,99241
2018-03-20T23:47:14.414Z,99242
2018-03-20T23:49:42.578Z,99242
2018-03-20T23:52:10.722Z,99244
2018-03-20T23:54:39.650Z,99245
2018-03-20T23:57:07.788Z,99245
2018-03-20T23:59:35.952Z,99249
